Date,TemperatureHighF,TemperatureAvgF,TemperatureLowF,DewpointHighF,DewpointAvgF,DewpointLowF,HumidityHigh,HumidityAvg,HumidityLow,PressureMaxIn,PressureMinIn,WindSpeedMaxMPH,WindSpeedAvgMPH,GustSpeedMaxMPH,PrecipitationSumIn
2013-2-1,52.0,37.0,26.0,30.0,27.8,25.0,97,72,40,0.00,40.00,9,4,14,0.00
2013-2-2,50.0,36.8,27.0,31.0,28.4,26.0,99,74,43,0.00,40.00,11,5,15,0.00
2013-2-3,54.0,41.5,28.0,29.0,22.1,16.0,89,50,22,0.00,40.00,11,9,20,0.00
2013-2-4,53.0,43.2,38.0,22.0,17.9,12.0,51,37,23,0.00,40.00,11,7,18,0.00
2013-2-5,44.0,37.3,28.0,31.0,21.1,14.0,91,55,34,0.00,40.00,14,11,29,0.00
2013-2-6,45.0,34.4,28.0,26.0,21.7,18.0,91,61,36,0.00,40.00,14,9,25,0.00
2013-2-7,37.0,29.9,23.0,27.0,21.6,17.0,95,72,43,0.00,40.00,11,5,20,0.02
2013-2-8,37.0,27.4,21.0,24.0,18.7,13.0,97,73,39,0.00,40.00,6,2,17,0.02
2013-2-9,43.0,28.4,19.0,26.0,20.8,15.0,91,74,51,0.00,40.00,7,4,10,0.00
2013-2-10,43.0,32.5,24.0,27.0,21.2,17.0,97,67,38,0.00,40.00,5,2,13,0.00
2013-2-11,50.0,35.2,24.0,28.0,23.4,18.0,86,64,33,0.00,40.00,8,4,18,0.00
2013-2-12,51.0,35.5,30.0,30.0,27.4,24.0,93,75,40,0.00,40.00,10,7,18,0.00
2013-2-13,43.0,36.3,31.0,31.0,28.6,24.0,92,75,47,0.00,40.00,13,8,22,0.00
2013-2-14,53.0,38.6,28.0,35.0,30.5,28.0,99,76,41,0.00,40.00,7,4,13,0.00
2013-2-15,59.0,44.4,33.0,34.0,32.2,28.0,96,65,35,0.00,40.00,10,4,13,0.00
2013-2-16,50.0,38.0,27.0,31.0,24.5,18.0,82,60,34,0.00,40.00,12,9,20,0.00
2013-2-17,45.0,30.7,23.0,21.0,17.0,3.0,83,62,18,0.00,40.00,8,4,17,0.00
2013-2-18,38.0,30.1,25.0,20.0,16.8,12.0,79,59,37,0.00,40.00,12,7,19,0.00
2013-2-19,39.0,28.5,22.0,24.0,19.0,17.0,91,69,41,0.00,40.00,9,4,14,0.00
2013-2-20,39.0,28.9,20.0,23.0,19.0,17.0,93,68,43,0.00,40.00,9,5,18,0.00
2013-2-21,32.0,27.4,23.0,23.0,21.8,19.0,95,80,58,0.00,40.00,13,9,25,0.00
2013-2-22,41.0,30.5,23.0,32.0,26.0,21.0,100,84,58,0.00,40.00,19,13,36,0.01
2013-2-23,32.0,24.2,20.0,30.0,22.5,19.0,96,93,87,0.00,40.00,10,7,20,0.10
2013-2-24,42.0,28.8,19.0,29.0,21.7,17.0,93,77,50,0.00,40.00,14,8,26,0.01
2013-2-25,35.0,29.9,23.0,31.0,21.9,14.0,98,72,56,0.00,40.00,14,9,27,0.01
2013-2-26,43.0,29.6,20.0,18.0,15.6,12.0,87,60,28,0.00,40.00,11,8,18,0.01
2013-2-27,44.0,34.9,29.0,28.0,20.5,13.0,72,56,44,0.00,40.00,11,8,19,0.00
2013-2-28,48.0,39.9,34.0,39.0,34.7,26.0,93,82,70,0.00,40.00,15,11,26,0.00